Time;durP1;ratioP1;P1;durP2;ratioP2;P2;SDS_P1;SDS_P2;PMS_P1;PMS_P2;Temp;Humidity;BMP_temperature;BMP_pressure;BME280_temperature;BME280_humidity;BME280_pressure;Samples;Min_cycle;Max_cycle;Signal;HPM_P1;HPM_P2
2023/01/15 00:01:28;;;;;;;6.90;3.90;;;;;;;;;;4974320;28;20047;-91
2023/01/15 00:03:55;;;;;;;3.55;3.35;;;;;;;;;;4974326;28;20051;-91
2023/01/15 00:06:22;;;;;;;6.18;5.75;;;;;;;;;;4974449;28;20516;-92
2023/01/15 00:08:49;;;;;;;8.13;4.95;;;;;;;;;;4974564;28;20047;-92
2023/01/15 00:11:16;;;;;;;4.18;1.77;;;;;;;;;;4974359;28;20051;-93
2023/01/15 00:13:43;;;;;;;3.78;3.50;;;;;;;;;;4973604;28;20496;-92
2023/01/15 00:16:11;;;;;;;4.03;3.22;;;;;;;;;;4974622;28;20105;-91
2023/01/15 00:18:38;;;;;;;3.65;3.13;;;;;;;;;;4974496;28;20057;-91
2023/01/15 00:21:06;;;;;;;3.53;3.22;;;;;;;;;;4974745;28;20051;-91
2023/01/15 00:29:01;;;;;;;2.47;2.28;;;;;;;;;;4975135;28;20054;-92
2023/01/15 00:31:30;;;;;;;2.72;2.40;;;;;;;;;;4974314;28;20055;-92
2023/01/15 00:33:56;;;;;;;2.63;2.42;;;;;;;;;;4974354;28;20059;-92
2023/01/15 00:36:24;;;;;;;3.05;2.83;;;;;;;;;;4974190;28;20126;-92
2023/01/15 00:38:51;;;;;;;6.43;4.45;;;;;;;;;;4974257;28;20503;-92
2023/01/15 00:41:17;;;;;;;4.00;3.67;;;;;;;;;;4974295;28;20079;-93
2023/01/15 00:43:44;;;;;;;3.10;2.90;;;;;;;;;;4973447;28;20471;-92
2023/01/15 00:46:10;;;;;;;12.18;4.88;;;;;;;;;;4973856;28;20050;-92
2023/01/15 00:48:38;;;;;;;8.95;4.10;;;;;;;;;;4973880;28;20051;-92
2023/01/15 00:51:05;;;;;;;4.20;3.80;;;;;;;;;;4975813;28;20054;-91
2023/01/15 00:53:32;;;;;;;3.33;3.13;;;;;;;;;;4977280;28;20490;-91
2023/01/15 00:55:58;;;;;;;6.53;4.72;;;;;;;;;;4977238;28;20058;-90
2023/01/15 00:58:25;;;;;;;3.17;2.60;;;;;;;;;;4977505;28;20050;-89
2023/01/15 01:00:53;;;;;;;6.03;5.43;;;;;;;;;;4977515;28;20055;-89
2023/01/15 01:03:19;;;;;;;4.35;3.97;;;;;;;;;;4977366;28;20054;-91
2023/01/15 01:05:47;;;;;;;4.22;3.92;;;;;;;;;;4977225;28;20475;-91
2023/01/15 01:08:14;;;;;;;2.75;2.63;;;;;;;;;;4977164;28;20058;-90
2023/01/15 01:10:40;;;;;;;7.07;6.72;;;;;;;;;;4977107;28;20466;-90
2023/01/15 01:13:07;;;;;;;8.02;5.95;;;;;;;;;;4976246;28;20106;-90
2023/01/15 01:15:33;;;;;;;3.42;3.13;;;;;;;;;;4977168;28;20105;-91
2023/01/15 01:18:00;;;;;;;4.65;4.22;;;;;;;;;;4977126;28;20055;-91
2023/01/15 01:20:26;;;;;;;3.80;3.50;;;;;;;;;;4976778;28;20109;-91
2023/01/15 01:22:54;;;;;;;5.70;3.03;;;;;;;;;;4977079;28;20050;-91
2023/01/15 01:25:21;;;;;;;2.53;2.40;;;;;;;;;;4976980;28;20051;-91
2023/01/15 01:27:48;;;;;;;4.00;3.13;;;;;;;;;;4976963;28;20131;-91
2023/01/15 01:30:14;;;;;;;4.05;3.75;;;;;;;;;;4976915;28;20054;-92
2023/01/15 01:32:43;;;;;;;4.78;3.90;;;;;;;;;;4976954;28;20047;-94
2023/01/15 01:35:10;;;;;;;3.53;2.70;;;;;;;;;;4976531;28;20400;-91
2023/01/15 01:37:37;;;;;;;2.80;2.65;;;;;;;;;;4976638;28;20075;-96
2023/01/15 01:40:05;;;;;;;2.17;2.00;;;;;;;;;;4976620;28;20059;-92
2023/01/15 01:42:32;;;;;;;5.25;4.45;;;;;;;;;;4976471;28;20058;-92
2023/01/15 01:45:01;;;;;;;4.70;4.32;;;;;;;;;;4976174;28;20051;-92
2023/01/15 01:47:29;;;;;;;3.08;2.88;;;;;;;;;;4976497;28;20054;-92
2023/01/15 01:49:59;;;;;;;3.83;3.55;;;;;;;;;;4976621;28;20105;-92
2023/01/15 01:52:26;;;;;;;5.28;4.78;;;;;;;;;;4976294;28;20097;-94
2023/01/15 01:54:53;;;;;;;3.83;3.40;;;;;;;;;;4976564;28;20050;-95
2023/01/15 01:57:22;;;;;;;2.40;2.30;;;;;;;;;;4976589;28;20129;-94
2023/01/15 01:59:49;;;;;;;2.70;2.22;;;;;;;;;;4976479;28;20124;-94
2023/01/15 02:02:16;;;;;;;2.47;2.38;;;;;;;;;;4976408;28;20050;-94
2023/01/15 02:04:43;;;;;;;2.28;2.17;;;;;;;;;;4976435;28;20051;-95
2023/01/15 02:07:10;;;;;;;4.90;2.20;;;;;;;;;;4975966;28;20078;-95
2023/01/15 02:09:36;;;;;;;5.20;4.30;;;;;;;;;;4976226;28;20106;-94
2023/01/15 02:12:06;;;;;;;4.78;4.47;;;;;;;;;;4976871;28;20462;-95
2023/01/15 02:14:37;;;;;;;3.45;2.22;;;;;;;;;;4976219;28;20053;-95
2023/01/15 02:17:06;;;;;;;2.92;2.72;;;;;;;;;;4976117;28;20117;-94
2023/01/15 02:19:37;;;;;;;5.07;3.45;;;;;;;;;;4976179;28;20051;-95
2023/01/15 02:22:10;;;;;;;1.90;1.80;;;;;;;;;;4976083;28;20183;-94
2023/01/15 02:24:42;;;;;;;2.83;2.63;;;;;;;;;;4975756;28;20478;-94
2023/01/15 02:27:12;;;;;;;3.28;3.00;;;;;;;;;;4975852;28;20054;-94
2023/01/15 02:29:45;;;;;;;3.70;3.40;;;;;;;;;;4975830;28;20105;-94
2023/01/15 02:32:14;;;;;;;2.40;2.28;;;;;;;;;;4975909;28;20050;-94
2023/01/15 02:34:44;;;;;;;2.33;2.13;;;;;;;;;;4975745;28;20054;-95
2023/01/15 02:37:14;;;;;;;2.67;2.47;;;;;;;;;;4975552;28;20134;-94
2023/01/15 02:39:42;;;;;;;3.60;3.30;;;;;;;;;;4975394;28;20436;-94
2023/01/15 02:42:09;;;;;;;5.95;2.65;;;;;;;;;;4975361;28;20101;-94
2023/01/15 02:44:39;;;;;;;2.38;1.67;;;;;;;;;;4975721;28;20050;-94
2023/01/15 02:47:07;;;;;;;3.55;3.28;;;;;;;;;;4975216;28;20054;-95
2023/01/15 02:49:34;;;;;;;2.13;1.88;;;;;;;;;;4975570;28;20053;-94
2023/01/15 02:52:02;;;;;;;2.65;2.47;;;;;;;;;;4975561;28;20458;-94
2023/01/15 02:54:30;;;;;;;3.63;3.15;;;;;;;;;;4975537;28;20054;-94
2023/01/15 02:56:59;;;;;;;5.25;4.95;;;;;;;;;;4975504;28;20406;-94
2023/01/15 02:59:28;;;;;;;2.72;2.53;;;;;;;;;;4975508;28;20113;-94
2023/01/15 03:01:58;;;;;;;2.88;2.75;;;;;;;;;;4975448;28;20051;-95
2023/01/15 03:04:28;;;;;;;3.70;3.40;;;;;;;;;;4975363;28;20055;-95
2023/01/15 03:06:58;;;;;;;4.28;3.97;;;;;;;;;;4974975;28;20097;-94
2023/01/15 03:09:25;;;;;;;4.38;4.07;;;;;;;;;;4975281;28;20055;-94
2023/01/15 03:12:02;;;;;;;4.40;4.10;;;;;;;;;;4975190;28;20050;-95
2023/01/15 03:14:32;;;;;;;4.90;4.43;;;;;;;;;;4974796;28;20113;-94
2023/01/15 03:17:05;;;;;;;4.75;3.25;;;;;;;;;;4974672;28;20452;-94
2023/01/15 03:19:35;;;;;;;5.30;4.10;;;;;;;;;;4975016;28;20051;-94
2023/01/15 03:22:04;;;;;;;5.03;4.70;;;;;;;;;;4975061;28;20113;-95
2023/01/15 03:24:32;;;;;;;4.47;3.95;;;;;;;;;;4974711;28;20101;-93
2023/01/15 03:26:59;;;;;;;4.97;4.55;;;;;;;;;;4974661;28;20137;-94
2023/01/15 03:29:28;;;;;;;3.33;2.97;;;;;;;;;;4974662;28;20092;-94
2023/01/15 03:31:55;;;;;;;3.92;3.70;;;;;;;;;;4975243;28;20050;-94
2023/01/15 03:34:24;;;;;;;4.57;2.08;;;;;;;;;;4974917;28;20051;-94
2023/01/15 03:36:50;;;;;;;3.67;3.38;;;;;;;;;;4974585;28;20113;-95
2023/01/15 03:39:17;;;;;;;4.28;4.00;;;;;;;;;;4974966;28;20059;-95
2023/01/15 03:41:47;;;;;;;5.22;4.82;;;;;;;;;;4974884;28;20465;-94
2023/01/15 03:44:17;;;;;;;3.22;2.92;;;;;;;;;;4974574;28;20101;-94
2023/01/15 03:47:08;;;;;;;4.22;3.83;;;;;;;;;;4974723;28;20047;-94
2023/01/15 03:49:40;;;;;;;6.25;2.53;;;;;;;;;;4964445;28;20055;-94
2023/01/15 03:52:12;;;;;;;4.00;3.70;;;;;;;;;;4974832;28;20170;-95
2023/01/15 03:54:44;;;;;;;5.57;4.35;;;;;;;;;;4974839;28;20110;-94
2023/01/15 03:57:14;;;;;;;4.70;4.30;;;;;;;;;;4975085;28;20125;-94
2023/01/15 03:59:46;;;;;;;5.47;4.28;;;;;;;;;;4974435;28;20055;-95
2023/01/15 04:02:13;;;;;;;3.00;2.80;;;;;;;;;;4974494;28;20483;-95
2023/01/15 04:04:42;;;;;;;4.13;3.90;;;;;;;;;;4974445;28;20054;-94
2023/01/15 04:07:08;;;;;;;6.18;5.80;;;;;;;;;;4974317;28;20388;-94
2023/01/15 04:09:37;;;;;;;4.35;3.72;;;;;;;;;;4974349;28;20495;-95
2023/01/15 04:12:04;;;;;;;3.08;2.75;;;;;;;;;;4974551;28;20055;-94
2023/01/15 04:14:31;;;;;;;3.80;2.92;;;;;;;;;;4974531;28;20089;-95
2023/01/15 04:16:57;;;;;;;1.58;1.48;;;;;;;;;;4974246;28;20114;-95
2023/01/15 04:19:24;;;;;;;3.08;2.22;;;;;;;;;;4974556;28;20050;-94
2023/01/15 04:21:52;;;;;;;4.50;3.80;;;;;;;;;;4974534;28;20055;-94
2023/01/15 04:24:18;;;;;;;4.80;2.78;;;;;;;;;;4974174;28;20502;-94
2023/01/15 04:26:45;;;;;;;2.67;2.47;;;;;;;;;;4976750;28;20046;-95
2023/01/15 04:29:11;;;;;;;1.05;1.05;;;;;;;;;;4977912;28;20101;-94
2023/01/15 04:31:38;;;;;;;2.35;2.13;;;;;;;;;;4978211;28;20058;-94
2023/01/15 04:34:05;;;;;;;6.72;3.28;;;;;;;;;;4977797;28;20054;-93
2023/01/15 04:36:34;;;;;;;2.70;2.53;;;;;;;;;;4977786;28;20414;-94
2023/01/15 04:39:02;;;;;;;2.00;1.90;;;;;;;;;;4977714;28;20094;-94
2023/01/15 04:44:12;;;;;;;1.73;1.63;;;;;;;;;;4977757;28;20102;-94
2023/01/15 04:46:41;;;;;;;5.10;2.45;;;;;;;;;;4977824;28;20097;-95
2023/01/15 04:49:08;;;;;;;2.83;2.65;;;;;;;;;;4977920;28;20106;-94
2023/01/15 04:51:36;;;;;;;3.78;3.47;;;;;;;;;;4977706;28;20050;-94
2023/01/15 04:54:04;;;;;;;2.60;2.30;;;;;;;;;;4977540;28;20082;-94
2023/01/15 04:56:31;;;;;;;2.03;1.77;;;;;;;;;;4977373;28;20055;-94
2023/01/15 04:58:59;;;;;;;1.92;1.83;;;;;;;;;;4977734;28;20058;-94
2023/01/15 05:01:26;;;;;;;1.77;1.67;;;;;;;;;;4977682;28;20101;-93
2023/01/15 05:03:52;;;;;;;1.75;1.65;;;;;;;;;;4977595;28;20097;-93
2023/01/15 05:06:19;;;;;;;1.50;1.40;;;;;;;;;;4978523;28;20058;-93
2023/01/15 05:08:46;;;;;;;5.60;3.13;;;;;;;;;;4977598;28;20130;-93
2023/01/15 05:11:14;;;;;;;1.88;1.77;;;;;;;;;;4977635;28;20458;-94
2023/01/15 05:13:40;;;;;;;3.03;2.83;;;;;;;;;;4977373;28;20109;-94
2023/01/15 05:16:07;;;;;;;2.00;1.90;;;;;;;;;;4977441;28;20117;-94
2023/01/15 05:18:34;;;;;;;2.35;2.20;;;;;;;;;;4977965;28;20059;-95
2023/01/15 05:21:00;;;;;;;3.92;2.80;;;;;;;;;;4977037;28;20050;-95
2023/01/15 05:23:27;;;;;;;2.50;2.40;;;;;;;;;;4977326;28;20046;-95
2023/01/15 05:25:53;;;;;;;3.22;3.00;;;;;;;;;;4977139;28;20047;-95
2023/01/15 05:28:21;;;;;;;3.75;2.08;;;;;;;;;;4976809;28;20106;-94
2023/01/15 05:30:48;;;;;;;2.03;1.92;;;;;;;;;;4977073;28;20105;-94
2023/01/15 05:33:14;;;;;;;4.10;2.70;;;;;;;;;;4976985;28;20458;-95
2023/01/15 05:35:41;;;;;;;4.57;2.80;;;;;;;;;;4976699;28;20105;-94
2023/01/15 05:38:07;;;;;;;3.13;2.88;;;;;;;;;;4976661;28;20054;-94
2023/01/15 05:40:34;;;;;;;2.42;2.22;;;;;;;;;;4976904;28;20050;-95
2023/01/15 05:43:00;;;;;;;1.98;1.85;;;;;;;;;;4976574;28;20058;-94
2023/01/15 05:45:28;;;;;;;2.97;2.78;;;;;;;;;;4976904;28;20051;-94
2023/01/15 05:47:55;;;;;;;3.97;2.85;;;;;;;;;;4976450;28;20076;-95
2023/01/15 05:50:21;;;;;;;7.15;3.20;;;;;;;;;;4976753;28;20050;-94
2023/01/15 05:52:48;;;;;;;3.72;3.50;;;;;;;;;;4976418;28;20519;-94
2023/01/15 05:55:14;;;;;;;4.05;3.75;;;;;;;;;;4976255;28;20051;-94
2023/01/15 05:57:41;;;;;;;2.17;2.08;;;;;;;;;;4976173;28;20523;-94
2023/01/15 06:00:08;;;;;;;2.42;2.33;;;;;;;;;;4976257;28;20047;-95
2023/01/15 06:02:36;;;;;;;2.53;2.42;;;;;;;;;;4976500;28;20062;-96
2023/01/15 06:05:04;;;;;;;2.35;2.20;;;;;;;;;;4976200;28;20562;-93
2023/01/15 06:07:31;;;;;;;3.03;2.83;;;;;;;;;;4976395;28;20121;-94
2023/01/15 06:09:57;;;;;;;2.05;1.95;;;;;;;;;;4975983;28;20047;-95
2023/01/15 06:12:24;;;;;;;1.58;1.17;;;;;;;;;;4976352;28;20075;-94
2023/01/15 06:14:50;;;;;;;2.97;2.22;;;;;;;;;;4976259;28;20055;-94
2023/01/15 06:17:17;;;;;;;2.13;2.03;;;;;;;;;;4975602;28;20118;-94
2023/01/15 06:19:45;;;;;;;2.92;2.72;;;;;;;;;;4976198;28;20042;-94
2023/01/15 06:22:11;;;;;;;2.78;1.92;;;;;;;;;;4976205;28;20110;-94
2023/01/15 06:24:38;;;;;;;5.93;5.65;;;;;;;;;;4976132;28;20466;-95
2023/01/15 06:27:04;;;;;;;1.83;1.75;;;;;;;;;;4975932;28;20054;-94
2023/01/15 06:29:31;;;;;;;2.35;2.25;;;;;;;;;;4975597;28;20138;-94
2023/01/15 06:31:57;;;;;;;2.28;1.90;;;;;;;;;;4975998;28;20109;-94
2023/01/15 06:34:24;;;;;;;3.72;3.50;;;;;;;;;;4975997;28;20466;-94
2023/01/15 06:36:52;;;;;;;5.20;3.83;;;;;;;;;;4975961;28;20110;-94
2023/01/15 06:39:18;;;;;;;4.53;2.72;;;;;;;;;;4975819;28;20050;-94
2023/01/15 06:47:23;;;;;;;8.13;4.63;;;;;;;;;;4975485;28;20070;-94
2023/01/15 06:49:50;;;;;;;2.20;2.05;;;;;;;;;;4975188;28;20101;-94
2023/01/15 06:52:18;;;;;;;3.40;3.05;;;;;;;;;;4975457;28;20526;-94
2023/01/15 06:54:44;;;;;;;4.88;4.03;;;;;;;;;;4975530;28;20047;-93
2023/01/15 06:57:11;;;;;;;2.25;2.13;;;;;;;;;;4975108;28;20055;-93
2023/01/15 06:59:38;;;;;;;3.47;3.28;;;;;;;;;;4975495;28;20047;-93
2023/01/15 07:02:04;;;;;;;3.28;3.08;;;;;;;;;;4975461;28;20051;-93
2023/01/15 07:04:31;;;;;;;2.50;1.83;;;;;;;;;;4975146;28;20503;-94
2023/01/15 07:06:57;;;;;;;4.28;4.00;;;;;;;;;;4974971;28;20825;-94
2023/01/15 07:09:25;;;;;;;3.58;3.28;;;;;;;;;;4975324;28;20050;-95
2023/01/15 07:11:51;;;;;;;6.57;5.15;;;;;;;;;;4975099;28;20054;-94
2023/01/15 07:14:18;;;;;;;3.00;2.80;;;;;;;;;;4975252;28;20047;-94
2023/01/15 07:16:45;;;;;;;5.97;5.47;;;;;;;;;;4974770;28;20110;-94
2023/01/15 07:19:12;;;;;;;3.85;3.30;;;;;;;;;;4975241;28;20102;-94
2023/01/15 07:21:38;;;;;;;4.82;4.40;;;;;;;;;;4975202;28;20050;-95
2023/01/15 07:24:05;;;;;;;5.78;5.10;;;;;;;;;;4974965;28;20046;-95
2023/01/15 07:26:33;;;;;;;9.00;7.03;;;;;;;;;;4975128;28;20125;-94
2023/01/15 07:29:00;;;;;;;8.60;5.18;;;;;;;;;;4974646;28;20491;-95
2023/01/15 07:31:26;;;;;;;6.78;6.18;;;;;;;;;;4974651;28;20050;-95
2023/01/15 07:33:53;;;;;;;4.38;4.07;;;;;;;;;;4974642;28;20091;-94
2023/01/15 07:36:19;;;;;;;6.15;5.10;;;;;;;;;;4974734;28;20105;-95
2023/01/15 07:38:46;;;;;;;7.88;4.90;;;;;;;;;;4975408;28;20059;-95
2023/01/15 07:49:47;;;;;;;6.57;6.18;;;;;;;;;;4915264;29;20512;-94
2023/01/15 07:52:14;;;;;;;4.63;4.32;;;;;;;;;;4916894;29;20047;-94
2023/01/15 07:54:40;;;;;;;4.22;3.80;;;;;;;;;;4917760;29;20059;-95
2023/01/15 07:57:07;;;;;;;4.20;3.50;;;;;;;;;;4915142;29;20060;-95
2023/01/15 07:59:35;;;;;;;4.68;4.38;;;;;;;;;;4917352;29;20497;-94
2023/01/15 08:02:01;;;;;;;7.47;5.03;;;;;;;;;;4922114;29;20055;-95
2023/01/15 08:04:28;;;;;;;5.18;4.78;;;;;;;;;;4924874;29;20048;-94
2023/01/15 08:06:54;;;;;;;5.88;4.95;;;;;;;;;;4922683;29;20107;-95
2023/01/15 08:09:21;;;;;;;5.82;4.88;;;;;;;;;;4919773;29;20052;-95
2023/01/15 08:17:17;;;;;;;7.45;6.90;;;;;;;;;;4919058;29;20059;-94
2023/01/15 08:19:43;;;;;;;8.63;7.82;;;;;;;;;;4919585;29;20095;-94
2023/01/15 08:22:10;;;;;;;3.50;3.00;;;;;;;;;;4976848;28;20050;-94
2023/01/15 08:24:37;;;;;;;6.95;5.00;;;;;;;;;;4979010;28;20047;-94
2023/01/15 08:27:04;;;;;;;8.93;8.30;;;;;;;;;;4978612;28;20121;-95
2023/01/15 08:29:30;;;;;;;5.05;4.70;;;;;;;;;;4978703;28;20054;-93
2023/01/15 08:31:57;;;;;;;6.95;6.47;;;;;;;;;;4979619;28;20133;-95
2023/01/15 08:34:25;;;;;;;4.75;3.33;;;;;;;;;;4980350;28;20050;-94
2023/01/15 08:36:56;;;;;;;5.22;4.75;;;;;;;;;;4980441;28;20130;-94
2023/01/15 08:39:22;;;;;;;6.20;3.78;;;;;;;;;;4986099;28;20061;-94
2023/01/15 08:41:49;;;;;;;10.45;6.60;;;;;;;;;;4992158;28;20051;-93
2023/01/15 08:44:16;;;;;;;5.07;4.43;;;;;;;;;;4993221;28;20090;-94
2023/01/15 08:46:43;;;;;;;2.25;2.15;;;;;;;;;;4989382;28;20047;-93
2023/01/15 08:49:10;;;;;;;5.15;4.78;;;;;;;;;;4979661;28;20047;-95
2023/01/15 08:51:38;;;;;;;4.10;3.80;;;;;;;;;;4978361;28;20444;-94
2023/01/15 08:54:04;;;;;;;6.97;5.45;;;;;;;;;;4978553;28;20054;-95
2023/01/15 08:56:31;;;;;;;3.35;3.15;;;;;;;;;;5023089;22;20083;-93
2023/01/15 08:58:58;;;;;;;3.75;3.55;;;;;;;;;;5036694;28;20401;-94
2023/01/15 09:01:24;;;;;;;3.83;3.63;;;;;;;;;;5037996;28;20053;-94
2023/01/15 09:03:51;;;;;;;5.80;4.85;;;;;;;;;;5036681;28;20485;-96
2023/01/15 09:06:17;;;;;;;6.00;5.50;;;;;;;;;;5036184;28;20053;-96
2023/01/15 09:08:45;;;;;;;7.10;6.50;;;;;;;;;;5036386;28;20571;-95
2023/01/15 09:11:12;;;;;;;4.22;3.83;;;;;;;;;;5035264;28;20175;-95
2023/01/15 09:13:39;;;;;;;9.38;4.65;;;;;;;;;;5036360;28;20053;-95
2023/01/15 09:16:06;;;;;;;2.85;2.65;;;;;;;;;;5036446;28;20041;-95
2023/01/15 09:18:34;;;;;;;6.63;4.22;;;;;;;;;;5036604;28;20112;-94
2023/01/15 09:21:01;;;;;;;7.82;7.13;;;;;;;;;;5036335;28;20468;-92
2023/01/15 09:23:27;;;;;;;4.32;4.03;;;;;;;;;;5036884;28;20103;-94
2023/01/15 09:25:55;;;;;;;6.53;5.15;;;;;;;;;;5036332;28;20049;-93
2023/01/15 09:28:22;;;;;;;4.18;3.70;;;;;;;;;;5035850;28;20100;-95
2023/01/15 09:30:49;;;;;;;7.25;6.70;;;;;;;;;;5036480;28;20076;-92
2023/01/15 09:33:16;;;;;;;10.90;5.85;;;;;;;;;;5036255;28;20046;-94
2023/01/15 09:35:42;;;;;;;5.43;4.93;;;;;;;;;;5036026;28;20045;-95
2023/01/15 09:38:11;;;;;;;4.13;3.85;;;;;;;;;;5036401;28;20054;-92
2023/01/15 09:40:43;;;;;;;3.33;3.00;;;;;;;;;;5036277;28;20413;-94
2023/01/15 09:43:15;;;;;;;4.38;4.00;;;;;;;;;;5036031;28;20049;-95
2023/01/15 09:45:45;;;;;;;2.67;1.88;;;;;;;;;;5035852;28;20144;-95
2023/01/15 09:48:20;;;;;;;2.90;2.70;;;;;;;;;;5036312;28;20049;-95
2023/01/15 09:50:54;;;;;;;4.78;4.43;;;;;;;;;;5036571;28;20092;-95
2023/01/15 09:53:35;;;;;;;4.50;4.10;;;;;;;;;;5035691;28;20563;-95
2023/01/15 09:56:03;;;;;;;3.45;2.88;;;;;;;;;;5032790;28;20049;-93
2023/01/15 09:58:33;;;;;;;2.80;2.60;;;;;;;;;;5034905;28;20460;-93
2023/01/15 10:01:00;;;;;;;5.32;4.60;;;;;;;;;;5035505;28;20049;-93
2023/01/15 10:03:29;;;;;;;6.85;5.60;;;;;;;;;;5035504;28;20100;-94
2023/01/15 10:05:58;;;;;;;3.70;2.75;;;;;;;;;;5037552;28;20053;-92
2023/01/15 10:08:26;;;;;;;3.70;3.42;;;;;;;;;;5036531;28;20053;-94
2023/01/15 10:10:55;;;;;;;1.20;1.17;;;;;;;;;;5038609;28;20076;-93
2023/01/15 10:13:25;;;;;;;3.95;3.50;;;;;;;;;;5037716;28;20116;-95
2023/01/15 10:15:53;;;;;;;5.32;4.78;;;;;;;;;;5034742;28;20053;-95
2023/01/15 10:18:21;;;;;;;4.60;4.30;;;;;;;;;;5035215;28;20053;-95
2023/01/15 10:21:04;;;;;;;3.25;3.05;;;;;;;;;;5034835;28;20053;-96
2023/01/15 10:23:35;;;;;;;4.82;4.43;;;;;;;;;;5033342;28;20049;-95
2023/01/15 10:26:03;;;;;;;3.25;2.92;;;;;;;;;;5034091;28;20056;-95
2023/01/15 10:28:31;;;;;;;3.80;2.80;;;;;;;;;;5033986;28;20069;-95
2023/01/15 10:31:03;;;;;;;4.43;4.13;;;;;;;;;;5034439;28;20045;-95
2023/01/15 10:33:41;;;;;;;4.55;3.22;;;;;;;;;;5034387;28;20045;-95
2023/01/15 10:36:10;;;;;;;3.45;3.15;;;;;;;;;;5034277;28;20053;-94
2023/01/15 10:38:39;;;;;;;5.65;5.18;;;;;;;;;;5034154;28;20045;-95
2023/01/15 10:41:21;;;;;;;4.65;4.28;;;;;;;;;;5034450;28;20061;-96
2023/01/15 10:43:50;;;;;;;4.60;4.28;;;;;;;;;;5034365;28;20057;-95
2023/01/15 10:46:19;;;;;;;3.25;3.08;;;;;;;;;;5033730;28;20057;-96
2023/01/15 10:48:48;;;;;;;2.95;2.75;;;;;;;;;;5033736;28;20060;-95
2023/01/15 10:51:17;;;;;;;5.53;5.10;;;;;;;;;;5033773;28;20546;-95
2023/01/15 10:53:46;;;;;;;3.55;3.35;;;;;;;;;;5034065;28;20061;-95
2023/01/15 10:56:15;;;;;;;2.65;2.53;;;;;;;;;;5033825;28;20049;-95
2023/01/15 10:58:45;;;;;;;3.10;2.85;;;;;;;;;;5034290;28;20107;-96
2023/01/15 11:01:14;;;;;;;4.43;4.15;;;;;;;;;;5033839;28;20046;-96
2023/01/15 11:03:43;;;;;;;7.85;7.45;;;;;;;;;;5034015;28;20452;-95
2023/01/15 11:06:13;;;;;;;3.47;3.25;;;;;;;;;;5034106;28;20049;-96
2023/01/15 11:08:40;;;;;;;4.20;3.78;;;;;;;;;;5036943;28;20046;-95
2023/01/15 11:11:14;;;;;;;4.28;3.97;;;;;;;;;;5037070;28;20502;-96
2023/01/15 11:19:38;;;;;;;3.53;3.30;;;;;;;;;;5033583;28;20052;-95
2023/01/15 11:22:12;;;;;;;3.03;2.83;;;;;;;;;;5033529;28;20049;-95
2023/01/15 11:24:44;;;;;;;3.20;2.90;;;;;;;;;;5033615;28;20053;-95
2023/01/15 11:27:15;;;;;;;5.35;4.57;;;;;;;;;;5033521;28;20053;-96
2023/01/15 11:29:43;;;;;;;3.67;3.08;;;;;;;;;;5033362;28;20133;-95
2023/01/15 11:32:19;;;;;;;3.38;3.03;;;;;;;;;;5033534;28;20053;-95
2023/01/15 11:34:53;;;;;;;2.97;2.78;;;;;;;;;;5033573;28;20112;-95
2023/01/15 11:40:23;;;;;;;5.30;4.90;;;;;;;;;;5033734;28;20108;-95
2023/01/15 11:51:07;;;;;;;3.92;3.72;;;;;;;;;;5033843;28;20052;-95
2023/01/15 11:53:37;;;;;;;3.10;2.97;;;;;;;;;;5033065;28;20045;-94
2023/01/15 11:56:06;;;;;;;3.60;3.33;;;;;;;;;;5033075;28;20050;-94
2023/01/15 11:58:33;;;;;;;5.88;5.47;;;;;;;;;;5032967;28;20053;-93
2023/01/15 12:01:01;;;;;;;4.47;4.07;;;;;;;;;;5033034;28;20115;-94
2023/01/15 12:03:29;;;;;;;2.97;2.80;;;;;;;;;;5032904;28;20041;-94
2023/01/15 12:05:57;;;;;;;3.60;3.28;;;;;;;;;;5033172;28;20049;-94
2023/01/15 12:08:32;;;;;;;4.72;4.32;;;;;;;;;;5032953;28;20049;-94
2023/01/15 12:11:04;;;;;;;2.25;2.13;;;;;;;;;;5033080;28;20058;-95
2023/01/15 12:13:36;;;;;;;5.43;4.90;;;;;;;;;;5033455;28;20486;-94
2023/01/15 12:16:07;;;;;;;4.13;3.85;;;;;;;;;;5033134;28;20390;-95
2023/01/15 12:18:48;;;;;;;4.63;4.43;;;;;;;;;;5033045;28;20141;-93
2023/01/15 12:21:20;;;;;;;4.43;4.03;;;;;;;;;;5032975;28;20045;-94
2023/01/15 12:24:03;;;;;;;4.13;3.85;;;;;;;;;;5033051;28;20057;-94
2023/01/15 12:26:31;;;;;;;3.20;2.92;;;;;;;;;;5032867;28;20103;-92
2023/01/15 12:29:01;;;;;;;5.47;5.18;;;;;;;;;;5032860;28;20053;-94
2023/01/15 12:31:30;;;;;;;5.63;5.30;;;;;;;;;;5033453;28;20046;-95
2023/01/15 12:34:00;;;;;;;3.88;3.55;;;;;;;;;;5032781;28;20050;-94
2023/01/15 12:36:29;;;;;;;3.47;3.28;;;;;;;;;;5032867;28;20053;-95
2023/01/15 12:38:58;;;;;;;2.95;2.63;;;;;;;;;;5033366;28;20448;-95
2023/01/15 12:44:59;;;;;;;3.92;3.63;;;;;;;;;;5032636;28;20057;-95
2023/01/15 12:47:05;;;;;;;5.30;4.93;;;;;;;;;;5034634;28;20134;-94
2023/01/15 12:49:34;;;;;;;3.92;3.58;;;;;;;;;;5036425;28;20088;-94
2023/01/15 12:52:03;;;;;;;5.35;4.85;;;;;;;;;;5036654;28;20053;-95
2023/01/15 12:54:34;;;;;;;6.20;5.70;;;;;;;;;;5036667;28;20099;-94
2023/01/15 12:57:05;;;;;;;4.53;4.22;;;;;;;;;;5036243;28;20111;-94
2023/01/15 12:59:34;;;;;;;5.35;5.03;;;;;;;;;;5036170;28;20516;-94
2023/01/15 13:02:08;;;;;;;4.00;3.72;;;;;;;;;;5036486;28;20052;-94
2023/01/15 13:04:42;;;;;;;1.85;1.75;;;;;;;;;;5036322;28;20057;-94
2023/01/15 13:07:12;;;;;;;5.15;4.65;;;;;;;;;;5036749;28;20099;-94
2023/01/15 13:09:44;;;;;;;6.55;4.75;;;;;;;;;;5036234;28;20489;-95
2023/01/15 13:12:16;;;;;;;3.03;2.83;;;;;;;;;;5036085;28;20581;-95
2023/01/15 13:14:43;;;;;;;2.90;2.70;;;;;;;;;;5036630;28;20053;-95
2023/01/15 13:17:13;;;;;;;4.45;4.22;;;;;;;;;;5036244;28;20045;-94
2023/01/15 13:19:43;;;;;;;4.13;3.42;;;;;;;;;;5043476;28;20123;-95
2023/01/15 13:22:13;;;;;;;2.00;1.90;;;;;;;;;;5037134;28;20053;-94
2023/01/15 13:24:52;;;;;;;2.65;2.53;;;;;;;;;;5036678;28;20053;-94
2023/01/15 13:27:26;;;;;;;5.07;4.70;;;;;;;;;;5041478;28;20050;-94
2023/01/15 13:30:01;;;;;;;3.67;3.47;;;;;;;;;;5048951;28;20045;-93
2023/01/15 13:32:29;;;;;;;5.28;4.97;;;;;;;;;;5054116;28;20077;-93
2023/01/15 13:34:57;;;;;;;3.30;3.10;;;;;;;;;;5056528;28;20050;-94
2023/01/15 13:37:26;;;;;;;6.07;5.55;;;;;;;;;;5056748;28;20045;-93
2023/01/15 13:39:54;;;;;;;4.93;4.50;;;;;;;;;;5053470;28;20042;-94
2023/01/15 13:42:35;;;;;;;5.10;4.70;;;;;;;;;;5052699;28;20046;-94
2023/01/15 13:45:06;;;;;;;3.15;2.90;;;;;;;;;;5038834;28;20049;-93
2023/01/15 13:47:35;;;;;;;2.25;2.15;;;;;;;;;;5035628;28;20057;-93
2023/01/15 13:50:04;;;;;;;3.22;3.00;;;;;;;;;;5035690;28;20046;-94
2023/01/15 13:52:31;;;;;;;3.45;3.25;;;;;;;;;;5035340;28;20488;-94
2023/01/15 13:55:00;;;;;;;3.10;2.92;;;;;;;;;;5035368;28;20054;-94
2023/01/15 13:57:34;;;;;;;2.70;2.60;;;;;;;;;;5034886;28;20108;-94
2023/01/15 14:00:01;;;;;;;4.00;3.70;;;;;;;;;;5035046;28;20551;-93
2023/01/15 14:02:30;;;;;;;4.75;4.40;;;;;;;;;;5035457;28;20064;-94
2023/01/15 14:04:57;;;;;;;2.80;2.67;;;;;;;;;;5034968;28;20136;-94
2023/01/15 14:07:31;;;;;;;4.28;4.00;;;;;;;;;;5035348;28;20107;-94
2023/01/15 14:10:07;;;;;;;4.10;3.85;;;;;;;;;;5034959;28;20049;-93
2023/01/15 14:12:40;;;;;;;5.30;4.97;;;;;;;;;;5034805;28;20045;-93
2023/01/15 14:15:25;;;;;;;3.33;3.13;;;;;;;;;;5034945;28;20107;-93
2023/01/15 14:18:09;;;;;;;4.18;3.88;;;;;;;;;;5034501;28;20107;-93
2023/01/15 14:20:44;;;;;;;4.88;4.63;;;;;;;;;;5021106;28;20045;-94
2023/01/15 14:23:20;;;;;;;2.75;2.63;;;;;;;;;;5034569;28;20049;-93
2023/01/15 14:25:56;;;;;;;3.90;3.70;;;;;;;;;;5034929;28;20049;-94
2023/01/15 14:28:32;;;;;;;6.40;4.38;;;;;;;;;;5034854;28;20103;-91
2023/01/15 14:31:14;;;;;;;7.78;6.70;;;;;;;;;;5034748;28;20049;-91
2023/01/15 14:33:47;;;;;;;4.38;4.07;;;;;;;;;;5034670;28;20053;-94
2023/01/15 14:36:18;;;;;;;4.20;3.60;;;;;;;;;;5034417;28;20057;-93
2023/01/15 14:38:46;;;;;;;6.38;6.03;;;;;;;;;;5034440;28;20107;-93
2023/01/15 14:41:13;;;;;;;3.58;3.38;;;;;;;;;;5034231;28;20456;-92
2023/01/15 14:43:40;;;;;;;5.10;4.03;;;;;;;;;;5034008;28;20049;-92
2023/01/15 14:46:13;;;;;;;4.90;4.50;;;;;;;;;;5034251;28;20049;-93
2023/01/15 14:48:40;;;;;;;2.50;2.38;;;;;;;;;;5034116;28;20049;-92
2023/01/15 14:51:07;;;;;;;2.70;2.47;;;;;;;;;;5034401;28;20099;-92
2023/01/15 14:53:38;;;;;;;3.67;3.47;;;;;;;;;;5034063;28;20053;-92
2023/01/15 14:56:12;;;;;;;1.90;1.80;;;;;;;;;;5034392;28;20136;-92
2023/01/15 14:58:47;;;;;;;2.20;2.00;;;;;;;;;;5034231;28;20053;-92
2023/01/15 15:01:21;;;;;;;5.07;4.38;;;;;;;;;;5034330;28;20049;-92
2023/01/15 15:03:51;;;;;;;2.22;1.85;;;;;;;;;;5034186;28;20444;-92
2023/01/15 15:06:18;;;;;;;5.22;3.42;;;;;;;;;;5034141;28;20153;-92
2023/01/15 15:08:46;;;;;;;2.95;2.85;;;;;;;;;;5033543;28;20053;-91
2023/01/15 15:13:57;;;;;;;5.63;5.32;;;;;;;;;;5033040;28;20401;-92
2023/01/15 15:16:25;;;;;;;3.97;3.78;;;;;;;;;;5034029;28;20452;-91
2023/01/15 15:18:57;;;;;;;3.28;2.95;;;;;;;;;;5033888;28;20076;-92
2023/01/15 15:21:25;;;;;;;2.92;2.63;;;;;;;;;;5033542;28;20041;-91
2023/01/15 15:23:56;;;;;;;2.75;2.53;;;;;;;;;;5033959;28;20046;-92
2023/01/15 15:26:24;;;;;;;4.13;3.85;;;;;;;;;;5033955;28;20111;-92
2023/01/15 15:28:58;;;;;;;2.83;1.58;;;;;;;;;;5033568;28;20083;-92
2023/01/15 15:31:26;;;;;;;4.30;3.72;;;;;;;;;;5033800;28;20050;-92
2023/01/15 15:33:53;;;;;;;4.43;3.95;;;;;;;;;;5033454;28;20053;-92
2023/01/15 15:36:20;;;;;;;6.78;6.47;;;;;;;;;;5033717;28;20478;-92
2023/01/15 15:38:52;;;;;;;3.42;3.28;;;;;;;;;;5033989;28;20088;-92
2023/01/15 15:48:40;;;;;;;2.92;2.70;;;;;;;;;;5035809;28;20053;-92
2023/01/15 15:49:38;;;;;;;3.33;3.13;;;;;;;;;;5034238;28;20057;-93